sensor_id;sensor_type;location;lat;lon;timestamp;P1;durP1;ratioP1;P2;durP2;ratioP2
62927;SDS011;51070;52.236;-0.892;2022-11-20T00:00:08;10.30;;;5.00;;
62927;SDS011;51070;52.236;-0.892;2022-11-20T00:02:34;12.60;;;5.40;;
62927;SDS011;51070;52.236;-0.892;2022-11-20T00:04:59;11.30;;;6.30;;
62927;SDS011;51070;52.236;-0.892;2022-11-20T00:07:24;10.70;;;5.40;;
62927;SDS011;51070;52.236;-0.892;2022-11-20T00:09:50;11.20;;;6.10;;
62927;SDS011;51070;52.236;-0.892;2022-11-20T00:12:15;8.10;;;4.90;;
62927;SDS011;51070;52.236;-0.892;2022-11-20T00:14:41;12.10;;;5.80;;
62927;SDS011;51070;52.236;-0.892;2022-11-20T00:17:06;10.80;;;5.10;;
62927;SDS011;51070;52.236;-0.892;2022-11-20T00:19:32;9.80;;;5.00;;
62927;SDS011;51070;52.236;-0.892;2022-11-20T00:21:57;10.20;;;5.40;;
62927;SDS011;51070;52.236;-0.892;2022-11-20T00:24:23;12.90;;;5.70;;
62927;SDS011;51070;52.236;-0.892;2022-11-20T00:26:48;9.10;;;5.20;;
62927;SDS011;51070;52.236;-0.892;2022-11-20T00:29:13;16.00;;;5.70;;
62927;SDS011;51070;52.236;-0.892;2022-11-20T00:31:39;15.80;;;5.70;;
62927;SDS011;51070;52.236;-0.892;2022-11-20T00:34:04;11.50;;;5.00;;
62927;SDS011;51070;52.236;-0.892;2022-11-20T00:36:31;8.70;;;4.10;;
62927;SDS011;51070;52.236;-0.892;2022-11-20T00:38:58;12.70;;;5.20;;
62927;SDS011;51070;52.236;-0.892;2022-11-20T00:41:25;11.30;;;4.40;;
62927;SDS011;51070;52.236;-0.892;2022-11-20T00:43:52;8.40;;;5.10;;
62927;SDS011;51070;52.236;-0.892;2022-11-20T00:46:21;9.90;;;4.60;;
62927;SDS011;51070;52.236;-0.892;2022-11-20T00:51:13;9.20;;;5.50;;
62927;SDS011;51070;52.236;-0.892;2022-11-20T00:53:41;11.60;;;5.80;;
62927;SDS011;51070;52.236;-0.892;2022-11-20T00:56:09;12.60;;;5.60;;
62927;SDS011;51070;52.236;-0.892;2022-11-20T00:58:36;10.40;;;4.80;;
62927;SDS011;51070;52.236;-0.892;2022-11-20T01:01:07;11.60;;;5.20;;
62927;SDS011;51070;52.236;-0.892;2022-11-20T01:03:39;12.10;;;5.80;;
62927;SDS011;51070;52.236;-0.892;2022-11-20T01:06:06;12.80;;;4.90;;
62927;SDS011;51070;52.236;-0.892;2022-11-20T01:08:34;12.40;;;6.80;;
62927;SDS011;51070;52.236;-0.892;2022-11-20T01:11:05;14.90;;;5.10;;
62927;SDS011;51070;52.236;-0.892;2022-11-20T01:13:33;11.50;;;5.20;;
62927;SDS011;51070;52.236;-0.892;2022-11-20T01:16:07;12.40;;;5.00;;
62927;SDS011;51070;52.236;-0.892;2022-11-20T01:18:35;11.00;;;4.80;;
62927;SDS011;51070;52.236;-0.892;2022-11-20T01:21:05;9.40;;;4.50;;
62927;SDS011;51070;52.236;-0.892;2022-11-20T01:23:36;12.20;;;5.80;;
62927;SDS011;51070;52.236;-0.892;2022-11-20T01:26:04;9.30;;;5.40;;
62927;SDS011;51070;52.236;-0.892;2022-11-20T01:28:34;8.90;;;5.10;;
62927;SDS011;51070;52.236;-0.892;2022-11-20T01:31:00;13.20;;;5.60;;
62927;SDS011;51070;52.236;-0.892;2022-11-20T01:33:26;12.00;;;4.80;;
62927;SDS011;51070;52.236;-0.892;2022-11-20T01:35:52;8.20;;;4.00;;
62927;SDS011;51070;52.236;-0.892;2022-11-20T01:38:18;9.80;;;5.10;;
62927;SDS011;51070;52.236;-0.892;2022-11-20T01:40:54;6.40;;;4.00;;
62927;SDS011;51070;52.236;-0.892;2022-11-20T01:43:20;12.00;;;4.60;;
62927;SDS011;51070;52.236;-0.892;2022-11-20T01:48:20;6.30;;;3.70;;
62927;SDS011;51070;52.236;-0.892;2022-11-20T01:50:49;5.10;;;2.70;;
62927;SDS011;51070;52.236;-0.892;2022-11-20T01:53:17;6.90;;;3.40;;
62927;SDS011;51070;52.236;-0.892;2022-11-20T01:55:48;5.80;;;2.80;;
62927;SDS011;51070;52.236;-0.892;2022-11-20T01:58:16;6.00;;;2.70;;
62927;SDS011;51070;52.236;-0.892;2022-11-20T02:00:46;4.80;;;2.20;;
62927;SDS011;51070;52.236;-0.892;2022-11-20T02:03:15;8.40;;;2.20;;
62927;SDS011;51070;52.236;-0.892;2022-11-20T02:08:30;3.20;;;1.70;;
62927;SDS011;51070;52.236;-0.892;2022-11-20T02:10:56;6.20;;;1.90;;
62927;SDS011;51070;52.236;-0.892;2022-11-20T02:13:21;5.30;;;2.80;;
62927;SDS011;51070;52.236;-0.892;2022-11-20T02:16:08;8.00;;;2.80;;
62927;SDS011;51070;52.236;-0.892;2022-11-20T02:18:36;8.00;;;2.30;;
62927;SDS011;51070;52.236;-0.892;2022-11-20T02:21:07;7.70;;;2.30;;
62927;SDS011;51070;52.236;-0.892;2022-11-20T02:26:18;4.80;;;2.10;;
62927;SDS011;51070;52.236;-0.892;2022-11-20T02:28:47;5.40;;;2.10;;
62927;SDS011;51070;52.236;-0.892;2022-11-20T02:31:12;4.20;;;2.20;;
62927;SDS011;51070;52.236;-0.892;2022-11-20T02:33:37;9.40;;;2.10;;
62927;SDS011;51070;52.236;-0.892;2022-11-20T02:36:03;5.20;;;2.20;;
62927;SDS011;51070;52.236;-0.892;2022-11-20T02:38:29;5.10;;;2.20;;
62927;SDS011;51070;52.236;-0.892;2022-11-20T02:40:54;4.30;;;2.20;;
62927;SDS011;51070;52.236;-0.892;2022-11-20T02:43:20;8.10;;;2.40;;
62927;SDS011;51070;52.236;-0.892;2022-11-20T02:45:45;6.50;;;2.20;;
62927;SDS011;51070;52.236;-0.892;2022-11-20T02:48:11;4.60;;;2.30;;
62927;SDS011;51070;52.236;-0.892;2022-11-20T02:50:36;7.40;;;2.50;;
62927;SDS011;51070;52.236;-0.892;2022-11-20T02:53:04;4.80;;;2.40;;
62927;SDS011;51070;52.236;-0.892;2022-11-20T02:55:29;9.00;;;2.90;;
62927;SDS011;51070;52.236;-0.892;2022-11-20T02:57:55;5.30;;;2.50;;
62927;SDS011;51070;52.236;-0.892;2022-11-20T03:00:20;4.40;;;2.00;;
62927;SDS011;51070;52.236;-0.892;2022-11-20T03:02:46;8.30;;;3.00;;
62927;SDS011;51070;52.236;-0.892;2022-11-20T03:05:11;7.20;;;2.00;;
62927;SDS011;51070;52.236;-0.892;2022-11-20T03:07:37;3.70;;;2.20;;
62927;SDS011;51070;52.236;-0.892;2022-11-20T03:10:03;6.70;;;2.20;;
62927;SDS011;51070;52.236;-0.892;2022-11-20T03:12:29;8.50;;;2.70;;
62927;SDS011;51070;52.236;-0.892;2022-11-20T03:14:54;8.60;;;2.10;;
62927;SDS011;51070;52.236;-0.892;2022-11-20T03:17:23;5.60;;;2.90;;
62927;SDS011;51070;52.236;-0.892;2022-11-20T03:22:16;4.60;;;2.30;;
62927;SDS011;51070;52.236;-0.892;2022-11-20T03:24:42;7.80;;;2.20;;
62927;SDS011;51070;52.236;-0.892;2022-11-20T03:27:07;6.20;;;2.30;;
62927;SDS011;51070;52.236;-0.892;2022-11-20T03:29:34;4.50;;;2.20;;
62927;SDS011;51070;52.236;-0.892;2022-11-20T03:32:00;6.50;;;1.90;;
62927;SDS011;51070;52.236;-0.892;2022-11-20T03:34:25;9.60;;;2.40;;
62927;SDS011;51070;52.236;-0.892;2022-11-20T03:36:51;6.60;;;3.10;;
62927;SDS011;51070;52.236;-0.892;2022-11-20T03:39:16;4.40;;;3.00;;
62927;SDS011;51070;52.236;-0.892;2022-11-20T03:41:41;6.00;;;2.50;;
62927;SDS011;51070;52.236;-0.892;2022-11-20T03:44:08;5.90;;;2.80;;
62927;SDS011;51070;52.236;-0.892;2022-11-20T03:46:35;6.40;;;2.90;;
62927;SDS011;51070;52.236;-0.892;2022-11-20T03:49:00;6.50;;;2.70;;
62927;SDS011;51070;52.236;-0.892;2022-11-20T03:51:27;4.70;;;2.50;;
62927;SDS011;51070;52.236;-0.892;2022-11-20T03:53:58;5.50;;;2.60;;
62927;SDS011;51070;52.236;-0.892;2022-11-20T03:58:53;4.30;;;2.50;;
62927;SDS011;51070;52.236;-0.892;2022-11-20T04:01:22;5.10;;;2.60;;
62927;SDS011;51070;52.236;-0.892;2022-11-20T04:03:51;8.20;;;3.30;;
62927;SDS011;51070;52.236;-0.892;2022-11-20T04:06:18;9.60;;;3.70;;
62927;SDS011;51070;52.236;-0.892;2022-11-20T04:08:49;8.00;;;2.60;;
62927;SDS011;51070;52.236;-0.892;2022-11-20T04:11:19;5.00;;;2.10;;
62927;SDS011;51070;52.236;-0.892;2022-11-20T04:13:50;6.10;;;2.80;;
62927;SDS011;51070;52.236;-0.892;2022-11-20T04:16:17;5.50;;;2.80;;
62927;SDS011;51070;52.236;-0.892;2022-11-20T04:18:43;6.60;;;2.20;;
62927;SDS011;51070;52.236;-0.892;2022-11-20T04:21:09;4.80;;;2.40;;
62927;SDS011;51070;52.236;-0.892;2022-11-20T04:23:35;6.50;;;2.60;;
62927;SDS011;51070;52.236;-0.892;2022-11-20T04:26:08;6.10;;;3.20;;
62927;SDS011;51070;52.236;-0.892;2022-11-20T04:28:35;6.90;;;3.30;;
62927;SDS011;51070;52.236;-0.892;2022-11-20T04:31:15;7.90;;;3.00;;
62927;SDS011;51070;52.236;-0.892;2022-11-20T04:33:42;4.90;;;2.70;;
62927;SDS011;51070;52.236;-0.892;2022-11-20T04:38:36;13.00;;;3.80;;
62927;SDS011;51070;52.236;-0.892;2022-11-20T04:41:05;5.20;;;2.70;;
62927;SDS011;51070;52.236;-0.892;2022-11-20T04:43:33;7.30;;;3.10;;
62927;SDS011;51070;52.236;-0.892;2022-11-20T04:45:59;7.40;;;2.90;;
62927;SDS011;51070;52.236;-0.892;2022-11-20T04:48:26;4.10;;;3.00;;
62927;SDS011;51070;52.236;-0.892;2022-11-20T04:50:52;7.50;;;2.90;;
62927;SDS011;51070;52.236;-0.892;2022-11-20T04:53:18;4.10;;;2.70;;
62927;SDS011;51070;52.236;-0.892;2022-11-20T04:55:44;5.40;;;3.10;;
62927;SDS011;51070;52.236;-0.892;2022-11-20T04:58:10;4.80;;;2.40;;
62927;SDS011;51070;52.236;-0.892;2022-11-20T05:00:35;6.60;;;3.20;;
62927;SDS011;51070;52.236;-0.892;2022-11-20T05:03:01;3.30;;;2.20;;
62927;SDS011;51070;52.236;-0.892;2022-11-20T05:05:26;7.70;;;3.30;;
62927;SDS011;51070;52.236;-0.892;2022-11-20T05:07:51;6.20;;;3.10;;
62927;SDS011;51070;52.236;-0.892;2022-11-20T05:10:17;4.60;;;2.70;;
62927;SDS011;51070;52.236;-0.892;2022-11-20T05:12:42;4.10;;;2.30;;
62927;SDS011;51070;52.236;-0.892;2022-11-20T05:15:08;5.30;;;2.90;;
62927;SDS011;51070;52.236;-0.892;2022-11-20T05:17:34;2.70;;;1.90;;
62927;SDS011;51070;52.236;-0.892;2022-11-20T05:19:59;5.90;;;3.10;;
62927;SDS011;51070;52.236;-0.892;2022-11-20T05:22:25;6.70;;;2.50;;
62927;SDS011;51070;52.236;-0.892;2022-11-20T05:24:50;7.70;;;3.30;;
62927;SDS011;51070;52.236;-0.892;2022-11-20T05:27:16;4.60;;;2.90;;
62927;SDS011;51070;52.236;-0.892;2022-11-20T05:29:41;6.80;;;2.60;;
62927;SDS011;51070;52.236;-0.892;2022-11-20T05:32:06;7.50;;;3.70;;
62927;SDS011;51070;52.236;-0.892;2022-11-20T05:34:34;5.60;;;3.00;;
62927;SDS011;51070;52.236;-0.892;2022-11-20T05:37:01;3.50;;;2.40;;
62927;SDS011;51070;52.236;-0.892;2022-11-20T05:39:27;6.00;;;3.20;;
62927;SDS011;51070;52.236;-0.892;2022-11-20T05:41:52;4.60;;;3.50;;
62927;SDS011;51070;52.236;-0.892;2022-11-20T05:44:38;5.50;;;2.50;;
62927;SDS011;51070;52.236;-0.892;2022-11-20T05:47:04;5.20;;;2.70;;
62927;SDS011;51070;52.236;-0.892;2022-11-20T05:49:30;5.70;;;3.70;;
62927;SDS011;51070;52.236;-0.892;2022-11-20T05:51:55;5.40;;;3.10;;
62927;SDS011;51070;52.236;-0.892;2022-11-20T05:54:21;5.30;;;3.10;;
62927;SDS011;51070;52.236;-0.892;2022-11-20T05:56:46;5.00;;;3.40;;
62927;SDS011;51070;52.236;-0.892;2022-11-20T05:59:12;4.00;;;2.80;;
62927;SDS011;51070;52.236;-0.892;2022-11-20T06:01:37;3.80;;;2.60;;
62927;SDS011;51070;52.236;-0.892;2022-11-20T06:04:02;5.00;;;2.80;;
62927;SDS011;51070;52.236;-0.892;2022-11-20T06:06:28;4.60;;;2.70;;
62927;SDS011;51070;52.236;-0.892;2022-11-20T06:08:56;3.30;;;2.40;;
62927;SDS011;51070;52.236;-0.892;2022-11-20T06:11:24;3.90;;;2.70;;
62927;SDS011;51070;52.236;-0.892;2022-11-20T06:13:50;3.60;;;2.70;;
62927;SDS011;51070;52.236;-0.892;2022-11-20T06:16:17;3.00;;;2.50;;
62927;SDS011;51070;52.236;-0.892;2022-11-20T06:18:45;4.20;;;2.60;;
62927;SDS011;51070;52.236;-0.892;2022-11-20T06:21:12;4.80;;;2.70;;
62927;SDS011;51070;52.236;-0.892;2022-11-20T06:23:42;3.50;;;2.50;;
62927;SDS011;51070;52.236;-0.892;2022-11-20T06:26:09;4.20;;;2.80;;
62927;SDS011;51070;52.236;-0.892;2022-11-20T06:28:45;5.00;;;2.80;;
62927;SDS011;51070;52.236;-0.892;2022-11-20T06:31:12;2.80;;;2.10;;
62927;SDS011;51070;52.236;-0.892;2022-11-20T06:33:39;3.30;;;1.90;;
62927;SDS011;51070;52.236;-0.892;2022-11-20T06:36:05;2.40;;;2.00;;
62927;SDS011;51070;52.236;-0.892;2022-11-20T06:38:31;4.30;;;3.00;;
62927;SDS011;51070;52.236;-0.892;2022-11-20T06:40:56;4.40;;;2.60;;
62927;SDS011;51070;52.236;-0.892;2022-11-20T06:43:22;4.80;;;3.10;;
62927;SDS011;51070;52.236;-0.892;2022-11-20T06:45:55;4.30;;;3.10;;
62927;SDS011;51070;52.236;-0.892;2022-11-20T06:48:23;3.90;;;3.10;;
62927;SDS011;51070;52.236;-0.892;2022-11-20T06:50:49;4.70;;;3.40;;
62927;SDS011;51070;52.236;-0.892;2022-11-20T06:53:15;4.60;;;2.20;;
62927;SDS011;51070;52.236;-0.892;2022-11-20T06:55:47;6.50;;;3.30;;
62927;SDS011;51070;52.236;-0.892;2022-11-20T06:58:13;4.50;;;3.60;;
62927;SDS011;51070;52.236;-0.892;2022-11-20T07:00:40;4.40;;;3.60;;
62927;SDS011;51070;52.236;-0.892;2022-11-20T07:03:06;4.80;;;3.20;;
62927;SDS011;51070;52.236;-0.892;2022-11-20T07:05:34;5.00;;;3.10;;
62927;SDS011;51070;52.236;-0.892;2022-11-20T07:08:00;6.70;;;3.50;;
62927;SDS011;51070;52.236;-0.892;2022-11-20T07:10:26;7.60;;;3.70;;
62927;SDS011;51070;52.236;-0.892;2022-11-20T07:12:52;4.40;;;3.00;;
62927;SDS011;51070;52.236;-0.892;2022-11-20T07:15:19;6.10;;;3.50;;
62927;SDS011;51070;52.236;-0.892;2022-11-20T07:17:45;6.00;;;3.50;;
62927;SDS011;51070;52.236;-0.892;2022-11-20T07:20:11;5.90;;;3.50;;
62927;SDS011;51070;52.236;-0.892;2022-11-20T07:22:37;5.80;;;2.80;;
62927;SDS011;51070;52.236;-0.892;2022-11-20T07:25:03;5.10;;;2.70;;
62927;SDS011;51070;52.236;-0.892;2022-11-20T07:27:29;5.80;;;2.70;;
62927;SDS011;51070;52.236;-0.892;2022-11-20T07:29:55;6.70;;;4.20;;
62927;SDS011;51070;52.236;-0.892;2022-11-20T07:32:20;4.80;;;3.10;;
62927;SDS011;51070;52.236;-0.892;2022-11-20T07:34:46;5.80;;;3.10;;
62927;SDS011;51070;52.236;-0.892;2022-11-20T07:37:12;5.10;;;3.00;;
62927;SDS011;51070;52.236;-0.892;2022-11-20T07:39:37;5.10;;;3.10;;
62927;SDS011;51070;52.236;-0.892;2022-11-20T07:42:03;3.40;;;2.50;;
62927;SDS011;51070;52.236;-0.892;2022-11-20T07:44:28;6.60;;;3.50;;
62927;SDS011;51070;52.236;-0.892;2022-11-20T07:46:54;4.40;;;2.60;;
62927;SDS011;51070;52.236;-0.892;2022-11-20T07:49:19;4.70;;;2.60;;
62927;SDS011;51070;52.236;-0.892;2022-11-20T07:51:44;6.30;;;2.90;;
62927;SDS011;51070;52.236;-0.892;2022-11-20T07:54:10;8.10;;;3.00;;
62927;SDS011;51070;52.236;-0.892;2022-11-20T07:56:35;6.40;;;3.50;;
62927;SDS011;51070;52.236;-0.892;2022-11-20T07:59:00;8.00;;;3.30;;
62927;SDS011;51070;52.236;-0.892;2022-11-20T08:01:26;10.30;;;3.40;;
62927;SDS011;51070;52.236;-0.892;2022-11-20T08:03:51;4.70;;;3.20;;
62927;SDS011;51070;52.236;-0.892;2022-11-20T08:06:16;4.20;;;2.30;;
62927;SDS011;51070;52.236;-0.892;2022-11-20T08:08:43;7.00;;;3.40;;
62927;SDS011;51070;52.236;-0.892;2022-11-20T08:11:09;6.90;;;3.20;;
62927;SDS011;51070;52.236;-0.892;2022-11-20T08:13:53;4.50;;;2.30;;
62927;SDS011;51070;52.236;-0.892;2022-11-20T08:16:37;5.90;;;2.60;;
62927;SDS011;51070;52.236;-0.892;2022-11-20T08:19:06;7.00;;;2.30;;
62927;SDS011;51070;52.236;-0.892;2022-11-20T08:21:32;3.50;;;1.90;;
62927;SDS011;51070;52.236;-0.892;2022-11-20T08:23:58;5.90;;;2.10;;
62927;SDS011;51070;52.236;-0.892;2022-11-20T08:26:27;3.70;;;2.00;;
62927;SDS011;51070;52.236;-0.892;2022-11-20T08:28:53;8.80;;;2.20;;
62927;SDS011;51070;52.236;-0.892;2022-11-20T08:31:20;6.80;;;1.90;;
62927;SDS011;51070;52.236;-0.892;2022-11-20T08:33:46;5.50;;;2.10;;
62927;SDS011;51070;52.236;-0.892;2022-11-20T08:36:11;3.60;;;1.70;;
62927;SDS011;51070;52.236;-0.892;2022-11-20T08:38:37;7.70;;;2.00;;
62927;SDS011;51070;52.236;-0.892;2022-11-20T08:41:03;7.20;;;1.60;;
62927;SDS011;51070;52.236;-0.892;2022-11-20T08:43:49;7.10;;;2.00;;
62927;SDS011;51070;52.236;-0.892;2022-11-20T08:46:18;4.50;;;1.80;;
62927;SDS011;51070;52.236;-0.892;2022-11-20T08:48:44;6.20;;;1.60;;
62927;SDS011;51070;52.236;-0.892;2022-11-20T08:51:10;5.90;;;1.80;;
62927;SDS011;51070;52.236;-0.892;2022-11-20T08:53:37;5.70;;;1.50;;
62927;SDS011;51070;52.236;-0.892;2022-11-20T08:56:03;9.10;;;2.20;;
62927;SDS011;51070;52.236;-0.892;2022-11-20T08:58:29;6.30;;;1.60;;
62927;SDS011;51070;52.236;-0.892;2022-11-20T09:00:54;3.80;;;1.50;;
62927;SDS011;51070;52.236;-0.892;2022-11-20T09:03:19;8.40;;;2.20;;
62927;SDS011;51070;52.236;-0.892;2022-11-20T09:05:45;6.70;;;2.00;;
62927;SDS011;51070;52.236;-0.892;2022-11-20T09:08:10;9.30;;;2.30;;
62927;SDS011;51070;52.236;-0.892;2022-11-20T09:10:36;8.90;;;1.70;;
62927;SDS011;51070;52.236;-0.892;2022-11-20T09:15:29;11.70;;;2.20;;
62927;SDS011;51070;52.236;-0.892;2022-11-20T09:17:56;8.90;;;2.30;;
62927;SDS011;51070;52.236;-0.892;2022-11-20T09:20:23;6.20;;;1.70;;
62927;SDS011;51070;52.236;-0.892;2022-11-20T09:22:49;10.90;;;1.40;;
62927;SDS011;51070;52.236;-0.892;2022-11-20T09:25:15;4.60;;;2.40;;
62927;SDS011;51070;52.236;-0.892;2022-11-20T09:27:40;8.80;;;2.10;;
62927;SDS011;51070;52.236;-0.892;2022-11-20T09:30:11;5.40;;;2.00;;
62927;SDS011;51070;52.236;-0.892;2022-11-20T09:32:41;7.20;;;2.30;;
62927;SDS011;51070;52.236;-0.892;2022-11-20T09:35:08;10.00;;;1.50;;
62927;SDS011;51070;52.236;-0.892;2022-11-20T09:37:34;10.90;;;2.30;;
62927;SDS011;51070;52.236;-0.892;2022-11-20T09:40:00;11.30;;;2.50;;
62927;SDS011;51070;52.236;-0.892;2022-11-20T09:45:19;7.20;;;2.90;;
62927;SDS011;51070;52.236;-0.892;2022-11-20T09:48:12;5.70;;;3.10;;
62927;SDS011;51070;52.236;-0.892;2022-11-20T09:50:49;7.20;;;2.20;;
62927;SDS011;51070;52.236;-0.892;2022-11-20T09:55:56;7.70;;;2.20;;
62927;SDS011;51070;52.236;-0.892;2022-11-20T10:01:08;9.90;;;2.60;;
62927;SDS011;51070;52.236;-0.892;2022-11-20T10:06:33;6.90;;;1.60;;
62927;SDS011;51070;52.236;-0.892;2022-11-20T10:09:13;8.50;;;1.90;;
62927;SDS011;51070;52.236;-0.892;2022-11-20T10:20:07;9.50;;;3.10;;
62927;SDS011;51070;52.236;-0.892;2022-11-20T10:22:51;10.50;;;2.80;;
62927;SDS011;51070;52.236;-0.892;2022-11-20T10:28:20;10.60;;;2.30;;
62927;SDS011;51070;52.236;-0.892;2022-11-20T10:30:57;15.10;;;2.50;;
62927;SDS011;51070;52.236;-0.892;2022-11-20T10:33:29;7.70;;;2.30;;
62927;SDS011;51070;52.236;-0.892;2022-11-20T10:38:54;8.10;;;2.60;;
62927;SDS011;51070;52.236;-0.892;2022-11-20T10:41:26;7.60;;;2.00;;
62927;SDS011;51070;52.236;-0.892;2022-11-20T10:47:04;10.30;;;2.20;;
62927;SDS011;51070;52.236;-0.892;2022-11-20T10:49:35;16.60;;;2.60;;
62927;SDS011;51070;52.236;-0.892;2022-11-20T10:52:12;11.20;;;2.10;;
62927;SDS011;51070;52.236;-0.892;2022-11-20T10:57:52;9.00;;;2.10;;
62927;SDS011;51070;52.236;-0.892;2022-11-20T11:00:19;6.60;;;2.10;;
62927;SDS011;51070;52.236;-0.892;2022-11-20T11:02:49;8.70;;;3.10;;
62927;SDS011;51070;52.236;-0.892;2022-11-20T11:07:45;9.70;;;2.60;;
62927;SDS011;51070;52.236;-0.892;2022-11-20T11:13:22;10.40;;;2.40;;
62927;SDS011;51070;52.236;-0.892;2022-11-20T11:15:49;12.40;;;2.00;;
62927;SDS011;51070;52.236;-0.892;2022-11-20T11:18:25;10.40;;;2.30;;
62927;SDS011;51070;52.236;-0.892;2022-11-20T11:21:02;10.70;;;2.40;;
62927;SDS011;51070;52.236;-0.892;2022-11-20T11:26:03;15.50;;;2.60;;
62927;SDS011;51070;52.236;-0.892;2022-11-20T11:28:31;6.00;;;2.20;;
62927;SDS011;51070;52.236;-0.892;2022-11-20T11:30:57;9.30;;;2.60;;
62927;SDS011;51070;52.236;-0.892;2022-11-20T11:33:30;10.90;;;2.70;;
62927;SDS011;51070;52.236;-0.892;2022-11-20T11:36:14;15.00;;;2.80;;
62927;SDS011;51070;52.236;-0.892;2022-11-20T11:38:44;8.50;;;2.50;;
62927;SDS011;51070;52.236;-0.892;2022-11-20T11:41:13;8.00;;;2.70;;
62927;SDS011;51070;52.236;-0.892;2022-11-20T11:43:50;10.90;;;2.60;;
62927;SDS011;51070;52.236;-0.892;2022-11-20T11:46:36;13.80;;;2.50;;
62927;SDS011;51070;52.236;-0.892;2022-11-20T11:52:15;12.60;;;2.60;;
62927;SDS011;51070;52.236;-0.892;2022-11-20T11:57:14;9.80;;;2.40;;
62927;SDS011;51070;52.236;-0.892;2022-11-20T12:02:24;15.30;;;3.90;;
62927;SDS011;51070;52.236;-0.892;2022-11-20T12:05:03;11.10;;;2.90;;
62927;SDS011;51070;52.236;-0.892;2022-11-20T12:13:01;9.30;;;3.50;;
62927;SDS011;51070;52.236;-0.892;2022-11-20T12:15:36;13.60;;;2.90;;
62927;SDS011;51070;52.236;-0.892;2022-11-20T12:18:09;9.20;;;2.60;;
62927;SDS011;51070;52.236;-0.892;2022-11-20T12:20:45;13.20;;;3.70;;
62927;SDS011;51070;52.236;-0.892;2022-11-20T12:26:05;9.90;;;2.90;;
62927;SDS011;51070;52.236;-0.892;2022-11-20T12:28:48;9.60;;;2.30;;
62927;SDS011;51070;52.236;-0.892;2022-11-20T12:34:21;5.40;;;1.90;;
62927;SDS011;51070;52.236;-0.892;2022-11-20T12:39:47;9.20;;;2.30;;
62927;SDS011;51070;52.236;-0.892;2022-11-20T12:45:24;9.20;;;2.10;;
62927;SDS011;51070;52.236;-0.892;2022-11-20T12:51:05;13.90;;;4.30;;
62927;SDS011;51070;52.236;-0.892;2022-11-20T13:02:11;24.70;;;4.30;;
62927;SDS011;51070;52.236;-0.892;2022-11-20T13:07:29;9.10;;;2.20;;
62927;SDS011;51070;52.236;-0.892;2022-11-20T13:09:56;11.30;;;2.50;;
62927;SDS011;51070;52.236;-0.892;2022-11-20T13:12:33;11.10;;;2.20;;
62927;SDS011;51070;52.236;-0.892;2022-11-20T13:17:58;10.80;;;2.80;;
62927;SDS011;51070;52.236;-0.892;2022-11-20T13:20:26;11.30;;;2.30;;
62927;SDS011;51070;52.236;-0.892;2022-11-20T13:22:57;12.90;;;3.10;;
62927;SDS011;51070;52.236;-0.892;2022-11-20T13:25:29;6.90;;;1.70;;
62927;SDS011;51070;52.236;-0.892;2022-11-20T13:27:58;6.10;;;2.50;;
62927;SDS011;51070;52.236;-0.892;2022-11-20T13:30:51;7.80;;;2.10;;
62927;SDS011;51070;52.236;-0.892;2022-11-20T13:35:57;15.50;;;3.90;;
62927;SDS011;51070;52.236;-0.892;2022-11-20T13:38:24;6.30;;;1.90;;
62927;SDS011;51070;52.236;-0.892;2022-11-20T13:40:51;18.30;;;3.60;;
62927;SDS011;51070;52.236;-0.892;2022-11-20T13:46:00;8.80;;;1.70;;
62927;SDS011;51070;52.236;-0.892;2022-11-20T13:48:34;7.10;;;2.00;;
62927;SDS011;51070;52.236;-0.892;2022-11-20T13:59:02;8.00;;;2.00;;
62927;SDS011;51070;52.236;-0.892;2022-11-20T14:01:56;8.90;;;2.80;;
62927;SDS011;51070;52.236;-0.892;2022-11-20T14:04:33;7.70;;;2.30;;
62927;SDS011;51070;52.236;-0.892;2022-11-20T14:07:01;15.00;;;2.70;;
62927;SDS011;51070;52.236;-0.892;2022-11-20T14:09:31;11.30;;;3.00;;
62927;SDS011;51070;52.236;-0.892;2022-11-20T14:11:59;13.20;;;3.30;;
62927;SDS011;51070;52.236;-0.892;2022-11-20T14:14:26;17.10;;;3.30;;
62927;SDS011;51070;52.236;-0.892;2022-11-20T14:17:03;7.50;;;2.10;;
62927;SDS011;51070;52.236;-0.892;2022-11-20T14:22:07;7.90;;;2.30;;
62927;SDS011;51070;52.236;-0.892;2022-11-20T14:24:44;8.70;;;2.60;;
62927;SDS011;51070;52.236;-0.892;2022-11-20T14:27:14;10.60;;;2.80;;
62927;SDS011;51070;52.236;-0.892;2022-11-20T14:29:43;9.70;;;2.30;;
62927;SDS011;51070;52.236;-0.892;2022-11-20T14:32:10;9.20;;;2.50;;
62927;SDS011;51070;52.236;-0.892;2022-11-20T14:37:10;8.80;;;2.40;;
62927;SDS011;51070;52.236;-0.892;2022-11-20T14:39:51;8.30;;;2.30;;
62927;SDS011;51070;52.236;-0.892;2022-11-20T14:42:19;10.60;;;2.70;;
62927;SDS011;51070;52.236;-0.892;2022-11-20T14:44:47;11.80;;;3.10;;
62927;SDS011;51070;52.236;-0.892;2022-11-20T14:47:17;13.60;;;3.80;;
62927;SDS011;51070;52.236;-0.892;2022-11-20T14:49:45;13.30;;;3.50;;
62927;SDS011;51070;52.236;-0.892;2022-11-20T14:52:19;9.50;;;2.50;;
62927;SDS011;51070;52.236;-0.892;2022-11-20T14:54:48;11.30;;;2.50;;
62927;SDS011;51070;52.236;-0.892;2022-11-20T14:57:26;7.70;;;3.10;;
62927;SDS011;51070;52.236;-0.892;2022-11-20T15:02:47;12.50;;;3.10;;
62927;SDS011;51070;52.236;-0.892;2022-11-20T15:05:14;9.20;;;2.50;;
62927;SDS011;51070;52.236;-0.892;2022-11-20T15:07:43;10.00;;;2.30;;
62927;SDS011;51070;52.236;-0.892;2022-11-20T15:10:24;8.20;;;2.50;;
62927;SDS011;51070;52.236;-0.892;2022-11-20T15:15:39;8.50;;;2.20;;
62927;SDS011;51070;52.236;-0.892;2022-11-20T15:18:18;16.20;;;2.80;;
62927;SDS011;51070;52.236;-0.892;2022-11-20T15:20:46;10.30;;;2.80;;
62927;SDS011;51070;52.236;-0.892;2022-11-20T15:23:13;13.50;;;3.10;;
62927;SDS011;51070;52.236;-0.892;2022-11-20T15:25:42;12.10;;;2.90;;
62927;SDS011;51070;52.236;-0.892;2022-11-20T15:28:13;8.90;;;3.00;;
62927;SDS011;51070;52.236;-0.892;2022-11-20T15:30:44;11.00;;;2.50;;
62927;SDS011;51070;52.236;-0.892;2022-11-20T15:33:11;10.70;;;2.50;;
62927;SDS011;51070;52.236;-0.892;2022-11-20T15:35:37;10.00;;;2.20;;
62927;SDS011;51070;52.236;-0.892;2022-11-20T15:38:03;13.00;;;3.20;;
62927;SDS011;51070;52.236;-0.892;2022-11-20T15:40:28;13.50;;;2.30;;
62927;SDS011;51070;52.236;-0.892;2022-11-20T15:42:53;7.90;;;2.50;;
62927;SDS011;51070;52.236;-0.892;2022-11-20T15:45:28;7.10;;;1.90;;
62927;SDS011;51070;52.236;-0.892;2022-11-20T15:47:58;3.70;;;1.70;;
62927;SDS011;51070;52.236;-0.892;2022-11-20T15:50:25;2.60;;;0.80;;
62927;SDS011;51070;52.236;-0.892;2022-11-20T15:52:55;4.90;;;1.00;;
62927;SDS011;51070;52.236;-0.892;2022-11-20T15:55:20;1.50;;;0.80;;
62927;SDS011;51070;52.236;-0.892;2022-11-20T15:57:46;2.00;;;0.70;;
62927;SDS011;51070;52.236;-0.892;2022-11-20T16:00:11;1.70;;;0.80;;
62927;SDS011;51070;52.236;-0.892;2022-11-20T16:02:37;1.30;;;0.60;;
62927;SDS011;51070;52.236;-0.892;2022-11-20T16:05:03;2.10;;;0.70;;
62927;SDS011;51070;52.236;-0.892;2022-11-20T16:07:34;0.90;;;0.40;;
62927;SDS011;51070;52.236;-0.892;2022-11-20T16:10:00;3.40;;;1.10;;
62927;SDS011;51070;52.236;-0.892;2022-11-20T16:12:25;2.80;;;0.60;;
62927;SDS011;51070;52.236;-0.892;2022-11-20T16:15:09;2.60;;;1.10;;
62927;SDS011;51070;52.236;-0.892;2022-11-20T16:18:04;4.10;;;1.00;;
62927;SDS011;51070;52.236;-0.892;2022-11-20T16:20:29;2.20;;;0.90;;
62927;SDS011;51070;52.236;-0.892;2022-11-20T16:22:54;8.40;;;2.20;;
62927;SDS011;51070;52.236;-0.892;2022-11-20T16:25:20;1.80;;;0.90;;
62927;SDS011;51070;52.236;-0.892;2022-11-20T16:27:45;3.50;;;1.30;;
62927;SDS011;51070;52.236;-0.892;2022-11-20T16:30:11;2.20;;;0.80;;
62927;SDS011;51070;52.236;-0.892;2022-11-20T16:32:36;2.50;;;1.00;;
62927;SDS011;51070;52.236;-0.892;2022-11-20T16:35:04;3.70;;;1.10;;
62927;SDS011;51070;52.236;-0.892;2022-11-20T16:37:30;1.80;;;1.00;;
62927;SDS011;51070;52.236;-0.892;2022-11-20T16:39:55;2.10;;;1.10;;
62927;SDS011;51070;52.236;-0.892;2022-11-20T16:42:21;2.80;;;1.50;;
62927;SDS011;51070;52.236;-0.892;2022-11-20T16:44:47;8.60;;;3.50;;